createdAt,value
2018-06-19T00:00:01.088Z,0
2018-06-19T00:01:01.807Z,0
2018-06-19T00:02:02.479Z,0
2018-06-19T00:03:03.149Z,0
2018-06-19T00:04:03.818Z,0
2018-06-19T00:05:04.488Z,0
2018-06-19T00:06:05.209Z,0
2018-06-19T00:07:05.879Z,0
2018-06-19T00:08:06.548Z,0
2018-06-19T00:09:07.219Z,0
2018-06-19T00:10:07.939Z,0
2018-06-19T00:11:08.613Z,0
2018-06-19T00:12:09.278Z,0
2018-06-19T00:13:09.947Z,0
2018-06-19T00:14:10.617Z,0
2018-06-19T00:15:11.288Z,0
2018-06-19T00:16:11.957Z,0
2018-06-19T00:17:12.627Z,0
2018-06-19T00:18:13.296Z,0
2018-06-19T00:19:13.966Z,0
2018-06-19T00:20:14.637Z,0
2018-06-19T00:21:15.308Z,0
2018-06-19T00:22:15.978Z,0
2018-06-19T00:23:16.649Z,0
2018-06-19T00:24:17.318Z,0
2018-06-19T00:25:17.989Z,0
2018-06-19T00:26:18.658Z,0
2018-06-19T00:27:19.329Z,0
2018-06-19T00:28:19.999Z,0
2018-06-19T00:29:20.668Z,0
2018-06-19T00:30:21.338Z,0
2018-06-19T00:31:22.008Z,0
2018-06-19T00:32:22.679Z,0
2018-06-19T00:33:23.348Z,0
2018-06-19T00:34:24.019Z,0
2018-06-19T00:35:24.688Z,0
2018-06-19T00:36:25.356Z,0
2018-06-19T00:37:26.028Z,0
2018-06-19T00:38:26.785Z,0
2018-06-19T00:39:27.455Z,0
2018-06-19T00:40:28.125Z,0
2018-06-19T00:41:28.793Z,0
2018-06-19T00:42:29.463Z,0
2018-06-19T00:43:30.133Z,0
2018-06-19T00:44:30.805Z,0
2018-06-19T00:45:31.476Z,0
2018-06-19T00:46:32.146Z,0
2018-06-19T00:47:32.815Z,0
2018-06-19T00:48:33.486Z,0
2018-06-19T00:49:34.156Z,0
2018-06-19T00:50:34.827Z,0
2018-06-19T00:51:35.499Z,0
2018-06-19T00:52:36.167Z,0
2018-06-19T00:53:36.923Z,0
2018-06-19T00:54:37.594Z,0
2018-06-19T00:55:38.266Z,0
2018-06-19T00:56:38.976Z,0
2018-06-19T00:57:39.649Z,0
2018-06-19T00:58:40.314Z,0
2018-06-19T00:59:40.985Z,0
2018-06-19T01:00:41.706Z,0
2018-06-19T01:01:42.375Z,0
2018-06-19T01:02:43.082Z,0
2018-06-19T01:03:43.751Z,0
2018-06-19T01:04:44.421Z,0
2018-06-19T01:05:45.092Z,0
2018-06-19T01:06:45.762Z,0
2018-06-19T01:07:46.432Z,0
2018-06-19T01:08:47.104Z,0
2018-06-19T01:09:47.773Z,0
2018-06-19T01:10:48.442Z,0
2018-06-19T01:11:49.113Z,0
2018-06-19T01:12:49.833Z,0
2018-06-19T01:13:50.503Z,0
2018-06-19T01:14:51.176Z,0
2018-06-19T01:15:51.847Z,0
2018-06-19T01:16:52.554Z,0
2018-06-19T01:17:53.226Z,0
2018-06-19T01:18:53.894Z,0
2018-06-19T01:19:54.564Z,0
2018-06-19T01:20:55.235Z,0
2018-06-19T01:21:55.904Z,0
2018-06-19T01:22:56.612Z,0
2018-06-19T01:23:57.282Z,0
2018-06-19T01:24:57.951Z,0
2018-06-19T01:25:58.621Z,0
2018-06-19T01:26:59.290Z,0
2018-06-19T01:27:59.959Z,0
2018-06-19T01:29:00.628Z,0
2018-06-19T01:30:01.336Z,0
2018-06-19T01:31:02.007Z,0
2018-06-19T01:32:02.679Z,0
2018-06-19T01:33:03.348Z,0
2018-06-19T01:34:04.017Z,0
2018-06-19T01:35:04.691Z,0
2018-06-19T01:36:05.358Z,0
2018-06-19T01:37:06.028Z,0
2018-06-19T01:38:06.753Z,0
2018-06-19T01:39:07.366Z,0
2018-06-19T01:40:08.036Z,0
2018-06-19T01:41:08.704Z,0
2018-06-19T01:42:09.374Z,0
2018-06-19T01:43:10.046Z,0
2018-06-19T01:44:10.756Z,0
2018-06-19T01:45:11.425Z,0
2018-06-19T01:46:12.095Z,0
2018-06-19T01:47:12.766Z,0
2018-06-19T01:48:13.484Z,0
2018-06-19T01:49:14.153Z,0
2018-06-19T01:50:14.822Z,0
2018-06-19T01:51:15.491Z,0
2018-06-19T01:52:16.160Z,0
2018-06-19T01:53:16.829Z,0
2018-06-19T01:54:17.500Z,0
2018-06-19T01:55:18.171Z,0
2018-06-19T01:56:18.842Z,0
2018-06-19T01:57:19.511Z,0
2018-06-19T01:58:20.181Z,0
2018-06-19T01:59:20.854Z,0
2018-06-19T02:00:21.572Z,0
2018-06-19T02:01:22.242Z,0
2018-06-19T02:02:22.910Z,0
2018-06-19T02:03:23.581Z,0
2018-06-19T02:04:24.306Z,0
2018-06-19T02:05:25.015Z,0
2018-06-19T02:06:25.678Z,0
2018-06-19T02:07:26.349Z,0
2018-06-19T02:08:27.019Z,0
2018-06-19T02:09:27.689Z,0
2018-06-19T02:10:28.409Z,0
2018-06-19T02:11:29.128Z,0
2018-06-19T02:12:29.798Z,0
2018-06-19T02:13:30.471Z,0
2018-06-19T02:14:31.189Z,0
2018-06-19T02:15:31.859Z,0
2018-06-19T02:16:32.533Z,0
2018-06-19T02:17:33.198Z,0
2018-06-19T02:18:33.866Z,0
2018-06-19T02:19:34.533Z,4
2018-06-19T02:20:35.206Z,4
2018-06-19T02:21:35.874Z,0
2018-06-19T02:22:36.544Z,4
2018-06-19T02:23:37.216Z,4
2018-06-19T02:24:37.882Z,4
2018-06-19T02:25:38.551Z,4
2018-06-19T02:26:39.219Z,4
2018-06-19T02:27:39.888Z,8
2018-06-19T02:28:40.558Z,4
2018-06-19T02:29:41.230Z,8
2018-06-19T02:30:41.949Z,8
2018-06-19T02:31:42.615Z,8
2018-06-19T02:32:43.283Z,8
2018-06-19T02:33:43.963Z,12
2018-06-19T02:34:44.663Z,8
2018-06-19T02:35:45.334Z,12
2018-06-19T02:36:46.054Z,12
2018-06-19T02:37:46.724Z,16
2018-06-19T02:38:47.395Z,16
2018-06-19T02:39:48.063Z,16
2018-06-19T02:40:48.733Z,16
2018-06-19T02:41:49.404Z,20
2018-06-19T02:42:50.110Z,20
2018-06-19T02:43:50.779Z,20
2018-06-19T02:44:51.448Z,24
2018-06-19T02:45:52.124Z,24
2018-06-19T02:46:52.792Z,24
2018-06-19T02:47:53.516Z,24
2018-06-19T02:48:54.184Z,24
2018-06-19T02:49:54.894Z,28
2018-06-19T02:50:55.655Z,24
2018-06-19T02:51:56.361Z,28
2018-06-19T02:52:57.119Z,28
2018-06-19T02:53:57.841Z,32
2018-06-19T02:54:58.512Z,32
2018-06-19T02:55:59.182Z,36
2018-06-19T02:56:59.856Z,40
2018-06-19T02:58:00.526Z,44
2018-06-19T02:59:01.196Z,48
2018-06-19T03:00:01.868Z,52
2018-06-19T03:01:02.538Z,64
2018-06-19T03:02:03.210Z,72
2018-06-19T03:03:03.985Z,84
2018-06-19T03:04:04.693Z,100
2018-06-19T03:05:05.410Z,112
2018-06-19T03:06:06.110Z,124
2018-06-19T03:07:06.835Z,136
2018-06-19T03:08:07.502Z,148
2018-06-19T03:09:08.179Z,168
2018-06-19T03:10:08.849Z,184
2018-06-19T03:11:09.556Z,208
2018-06-19T03:12:10.277Z,232
2018-06-19T03:13:10.949Z,244
2018-06-19T03:14:11.669Z,252
2018-06-19T03:15:12.346Z,252
2018-06-19T03:16:13.054Z,248
2018-06-19T03:17:13.727Z,256
2018-06-19T03:18:14.396Z,268
2018-06-19T03:19:15.119Z,268
2018-06-19T03:20:15.791Z,268
2018-06-19T03:21:16.461Z,272
2018-06-19T03:22:17.135Z,284
2018-06-19T03:23:17.809Z,288
2018-06-19T03:24:18.483Z,292
2018-06-19T03:25:19.157Z,308
2018-06-19T03:26:19.830Z,320
2018-06-19T03:27:20.504Z,324
2018-06-19T03:28:21.176Z,332
2018-06-19T03:29:21.901Z,348
2018-06-19T03:30:22.673Z,372
2018-06-19T03:31:23.249Z,404
2018-06-19T03:32:23.922Z,452
2018-06-19T03:33:24.633Z,508
2018-06-19T03:34:25.307Z,556
2018-06-19T03:35:25.982Z,584
2018-06-19T03:36:26.657Z,588
2018-06-19T03:37:27.328Z,588
2018-06-19T03:38:28.002Z,592
2018-06-19T03:39:28.676Z,596
2018-06-19T03:40:29.349Z,600
2018-06-19T03:41:30.026Z,600
2018-06-19T03:42:30.746Z,604
2018-06-19T03:43:31.421Z,592
2018-06-19T03:44:32.095Z,572
2018-06-19T03:45:32.767Z,532
2018-06-19T03:46:33.443Z,516
2018-06-19T03:47:34.217Z,544
2018-06-19T03:48:34.889Z,592
2018-06-19T03:49:35.563Z,612
2018-06-19T03:50:36.238Z,616
2018-06-19T03:51:36.911Z,624
2018-06-19T03:52:37.613Z,612
2018-06-19T03:53:38.258Z,592
2018-06-19T03:54:38.932Z,588
2018-06-19T03:55:39.605Z,596
2018-06-19T03:56:40.282Z,616
2018-06-19T03:57:40.955Z,640
2018-06-19T03:58:41.685Z,664
2018-06-19T03:59:42.351Z,696
2018-06-19T04:00:43.026Z,724
2018-06-19T04:01:43.702Z,736
2018-06-19T04:02:44.378Z,744
2018-06-19T04:03:45.088Z,764
2018-06-19T04:04:45.761Z,784
2018-06-19T04:05:46.436Z,792
2018-06-19T04:06:47.110Z,796
2018-06-19T04:07:47.831Z,796
2018-06-19T04:08:48.509Z,796
2018-06-19T04:09:49.179Z,808
2018-06-19T04:10:49.852Z,832
2018-06-19T04:11:50.529Z,884
2018-06-19T04:12:51.199Z,960
2018-06-19T04:13:51.875Z,1040
2018-06-19T04:14:52.551Z,1096
2018-06-19T04:15:53.227Z,1128
2018-06-19T04:16:53.903Z,1136
2018-06-19T04:17:54.581Z,1160
2018-06-19T04:18:55.301Z,1184
2018-06-19T04:19:55.980Z,1200
2018-06-19T04:20:56.651Z,1236
2018-06-19T04:21:57.327Z,1268
2018-06-19T04:22:58.000Z,1228
2018-06-19T04:23:58.677Z,1180
2018-06-19T04:24:59.352Z,1224
2018-06-19T04:26:00.030Z,1324
2018-06-19T04:27:00.703Z,1376
2018-06-19T04:28:01.378Z,1376
2018-06-19T04:29:02.055Z,1408
2018-06-19T04:30:02.734Z,1500
2018-06-19T04:31:03.406Z,1560
2018-06-19T04:32:04.119Z,1600
2018-06-19T04:33:04.795Z,1628
2018-06-19T04:34:05.505Z,1824
2018-06-19T04:35:06.220Z,2004
2018-06-19T04:36:06.896Z,1924
2018-06-19T04:37:07.571Z,1888
2018-06-19T04:38:08.250Z,2024
2018-06-19T04:39:08.959Z,2248
2018-06-19T04:40:09.635Z,2468
2018-06-19T04:41:10.317Z,2656
2018-06-19T04:42:11.070Z,2820
2018-06-19T04:43:11.694Z,2912
2018-06-19T04:44:12.372Z,2820
2018-06-19T04:45:13.085Z,2780
2018-06-19T04:46:13.809Z,2936
2018-06-19T04:47:14.486Z,3124
2018-06-19T04:48:15.164Z,3280
2018-06-19T04:49:15.840Z,3404
2018-06-19T04:50:16.517Z,3392
2018-06-19T04:51:17.193Z,3292
2018-06-19T04:52:17.869Z,3260
2018-06-19T04:53:18.547Z,3360
2018-06-19T04:54:19.223Z,3320
2018-06-19T04:55:19.900Z,3248
2018-06-19T04:56:20.579Z,3360
2018-06-19T04:57:21.302Z,3528
2018-06-19T04:58:21.979Z,3684
2018-06-19T04:59:22.656Z,3928
2018-06-19T05:00:23.332Z,4120
2018-06-19T05:01:24.050Z,4284
2018-06-19T05:02:24.722Z,4464
2018-06-19T05:03:25.401Z,4632
2018-06-19T05:04:26.083Z,4792
2018-06-19T05:05:26.806Z,4928
2018-06-19T05:06:27.484Z,4724
2018-06-19T05:07:28.166Z,4076
2018-06-19T05:08:28.838Z,3624
2018-06-19T05:09:29.514Z,3532
2018-06-19T05:10:30.190Z,3716
2018-06-19T05:11:30.869Z,4260
2018-06-19T05:12:31.597Z,4564
2018-06-19T05:13:32.274Z,4964
2018-06-19T05:14:32.951Z,5388
2018-06-19T05:15:33.629Z,5916
2018-06-19T05:16:34.306Z,5812
2018-06-19T05:17:34.984Z,5468
2018-06-19T05:18:35.662Z,4608
2018-06-19T05:19:36.337Z,4616
2018-06-19T05:20:37.016Z,4928
2018-06-19T05:21:37.693Z,5284
2018-06-19T05:22:38.370Z,6392
2018-06-19T05:23:39.046Z,6144
2018-06-19T05:24:39.730Z,4300
2018-06-19T05:25:40.401Z,4640
2018-06-19T05:26:41.081Z,4784
2018-06-19T05:27:41.793Z,6000
2018-06-19T05:28:42.470Z,8156
2018-06-19T05:29:43.147Z,8344
2018-06-19T05:30:43.826Z,8188
2018-06-19T05:31:44.501Z,7324
2018-06-19T05:32:45.179Z,6300
2018-06-19T05:33:45.856Z,5972
2018-06-19T05:34:46.533Z,7020
2018-06-19T05:35:47.212Z,7596
2018-06-19T05:36:47.889Z,8472
2018-06-19T05:37:48.568Z,9572
2018-06-19T05:38:49.244Z,9596
2018-06-19T05:39:49.923Z,9024
2018-06-19T05:40:50.656Z,8800
2018-06-19T05:41:51.380Z,8012
2018-06-19T05:42:52.060Z,6096
2018-06-19T05:43:52.777Z,5232
2018-06-19T05:44:53.493Z,4356
2018-06-19T05:45:54.171Z,3968
2018-06-19T05:46:54.850Z,4100
2018-06-19T05:47:55.526Z,4752
2018-06-19T05:48:56.211Z,5748
2018-06-19T05:49:56.889Z,6164
2018-06-19T05:50:57.568Z,5972
2018-06-19T05:51:58.245Z,5524
2018-06-19T05:52:58.924Z,6276
2018-06-19T05:53:59.603Z,6808
2018-06-19T05:55:00.286Z,6624
2018-06-19T05:56:00.961Z,8416
2018-06-19T05:57:01.641Z,8976
2018-06-19T05:58:02.360Z,8404
2018-06-19T05:59:03.037Z,7256
2018-06-19T06:00:03.718Z,7516
2018-06-19T06:01:04.393Z,8360
2018-06-19T06:02:05.074Z,8876
2018-06-19T06:03:05.754Z,10720
2018-06-19T06:04:06.432Z,12028
2018-06-19T06:05:07.112Z,9752
2018-06-19T06:06:07.793Z,7136
2018-06-19T06:07:08.471Z,6352
2018-06-19T06:08:09.149Z,5804
2018-06-19T06:09:09.827Z,5940
2018-06-19T06:10:10.505Z,5636
2018-06-19T06:11:11.251Z,4996
2018-06-19T06:12:11.913Z,4988
2018-06-19T06:13:12.591Z,5088
2018-06-19T06:14:13.321Z,4900
2018-06-19T06:15:13.998Z,4644
2018-06-19T06:16:14.677Z,4740
2018-06-19T06:17:15.354Z,5104
2018-06-19T06:18:16.034Z,5220
2018-06-19T06:19:16.762Z,4864
2018-06-19T06:20:17.441Z,6024
2018-06-19T06:21:18.120Z,7100
2018-06-19T06:22:18.798Z,7648
2018-06-19T06:23:19.478Z,11488
2018-06-19T06:24:20.157Z,9384
2018-06-19T06:25:20.839Z,23360
2018-06-19T06:26:21.569Z,37152
2018-06-19T06:27:22.248Z,12684
2018-06-19T06:28:22.927Z,44064
2018-06-19T06:29:23.606Z,50976
2018-06-19T06:30:24.287Z,78912
2018-06-19T06:31:24.989Z,85056
2018-06-19T06:32:25.646Z,84352
2018-06-19T06:33:26.327Z,87008
2018-06-19T06:34:27.006Z,85312
2018-06-19T06:35:27.689Z,82112
2018-06-19T06:36:28.369Z,67424
2018-06-19T06:37:29.050Z,78848
2018-06-19T06:38:29.731Z,78368
2018-06-19T06:39:30.420Z,11120
2018-06-19T06:40:31.097Z,82624
2018-06-19T06:41:31.780Z,74176
2018-06-19T06:42:32.463Z,83968
2018-06-19T06:43:33.147Z,80736
2018-06-19T06:44:33.834Z,71904
2018-06-19T06:45:34.518Z,11552
2018-06-19T06:46:35.199Z,47488
2018-06-19T06:47:35.886Z,38528
2018-06-19T06:48:36.624Z,42112
2018-06-19T06:49:37.306Z,80576
2018-06-19T06:50:37.990Z,79520
2018-06-19T06:51:38.678Z,75968
2018-06-19T06:52:39.364Z,78336
2018-06-19T06:53:40.048Z,82624
2018-06-19T06:54:40.733Z,83488
2018-06-19T06:55:41.428Z,83744
2018-06-19T06:56:42.106Z,40192
2018-06-19T06:57:42.792Z,83616
2018-06-19T06:58:43.482Z,32160
2018-06-19T06:59:44.166Z,12252
2018-06-19T07:01:46.503Z,7072
2018-06-19T07:02:47.177Z,16768
2018-06-19T07:03:47.850Z,13992
2018-06-19T07:04:48.573Z,64544
2018-06-19T07:05:49.246Z,77568
2018-06-19T07:06:49.919Z,27328
2018-06-19T07:07:50.593Z,11912
2018-06-19T07:08:51.267Z,81920
2018-06-19T07:09:52.011Z,13528
2018-06-19T07:10:52.642Z,47136
2018-06-19T07:11:53.327Z,18048
2018-06-19T07:12:54.012Z,8628
2018-06-19T07:13:54.701Z,6560
2018-06-19T07:14:55.385Z,5380
2018-06-19T07:15:56.120Z,7064
2018-06-19T07:16:56.755Z,4476
2018-06-19T07:17:57.441Z,4276
2018-06-19T07:18:58.141Z,3896
2018-06-19T07:19:58.847Z,3632
2018-06-19T07:20:59.535Z,4472
2018-06-19T07:22:00.221Z,4660
2018-06-19T07:23:00.907Z,4708
2018-06-19T07:24:01.586Z,4108
2018-06-19T07:25:02.320Z,4724
2018-06-19T07:26:03.071Z,6176
2018-06-19T07:27:03.725Z,76992
2018-06-19T07:28:04.413Z,76224
2018-06-19T07:29:05.096Z,11636
2018-06-19T07:30:05.782Z,80096
2018-06-19T07:31:06.465Z,54368
2018-06-19T07:32:07.224Z,76864
2018-06-19T07:33:07.886Z,81408
2018-06-19T07:34:08.569Z,76096
2018-06-19T07:35:09.258Z,76864
2018-06-19T07:36:09.942Z,77408
2018-06-19T07:37:10.626Z,13152
2018-06-19T07:38:11.418Z,78816
2018-06-19T07:39:11.997Z,71424
2018-06-19T07:40:12.682Z,68832
2018-06-19T07:41:13.368Z,77344
2018-06-19T07:42:14.052Z,75488
2018-06-19T07:43:14.739Z,69952
2018-06-19T07:44:15.426Z,67488
2018-06-19T07:45:16.110Z,69024
2018-06-19T07:46:16.849Z,68128
2018-06-19T07:47:17.535Z,67040
2018-06-19T07:48:18.221Z,69728
2018-06-19T07:49:18.956Z,72544
2018-06-19T07:50:19.644Z,71776
2018-06-19T07:51:20.330Z,68672
2018-06-19T07:52:21.016Z,69728
2018-06-19T07:53:21.706Z,72864
2018-06-19T07:54:22.431Z,68960
2018-06-19T07:55:23.118Z,71488
2018-06-19T07:56:23.842Z,76512
2018-06-19T07:57:24.557Z,70464
2018-06-19T07:58:25.214Z,65792
2018-06-19T07:59:25.952Z,68352
2018-06-19T08:00:26.638Z,67168
2018-06-19T08:01:27.326Z,63904
2018-06-19T08:02:28.015Z,63840
2018-06-19T08:03:28.700Z,62880
2018-06-19T08:04:29.386Z,64224
2018-06-19T08:05:30.074Z,63104
2018-06-19T08:06:30.761Z,65984
2018-06-19T08:07:31.498Z,64288
2018-06-19T08:08:32.186Z,58848
2018-06-19T08:09:32.873Z,60928
2018-06-19T08:10:33.610Z,61824
2018-06-19T08:11:34.295Z,60128
2018-06-19T08:12:34.986Z,52960
2018-06-19T08:13:35.718Z,30816
2018-06-19T08:14:36.360Z,15300
2018-06-19T08:15:37.043Z,11812
2018-06-19T08:16:37.732Z,10900
2018-06-19T08:17:38.418Z,10392
2018-06-19T08:18:39.104Z,9856
2018-06-19T08:19:39.788Z,9500
2018-06-19T08:20:40.525Z,9092
2018-06-19T08:21:41.210Z,8748
2018-06-19T08:22:41.909Z,8432
2018-06-19T08:23:42.582Z,8156
2018-06-19T08:24:43.304Z,7876
2018-06-19T08:25:43.996Z,7648
2018-06-19T08:26:44.716Z,7400
2018-06-19T08:27:45.411Z,7196
2018-06-19T08:28:46.088Z,7008
2018-06-19T08:29:46.780Z,6872
2018-06-19T08:30:47.459Z,6784
2018-06-19T08:31:48.195Z,6712
2018-06-19T08:32:48.880Z,6640
2018-06-19T08:33:49.565Z,6640
2018-06-19T08:34:50.305Z,6556
2018-06-19T08:35:51.026Z,6448
2018-06-19T08:36:51.763Z,6400
2018-06-19T08:37:52.447Z,6360
2018-06-19T08:38:53.134Z,6352
2018-06-19T08:39:53.820Z,6448
2018-06-19T08:40:54.507Z,6344
2018-06-19T08:41:55.192Z,6252
2018-06-19T08:42:55.879Z,6152
2018-06-19T08:43:56.565Z,6256
2018-06-19T08:44:57.252Z,6120
2018-06-19T08:45:57.936Z,6184
2018-06-19T08:46:58.622Z,6272
2018-06-19T08:47:59.404Z,6556
2018-06-19T08:49:00.050Z,6912
2018-06-19T08:50:00.769Z,7232
2018-06-19T08:51:01.455Z,7828
2018-06-19T08:52:02.193Z,8924
2018-06-19T08:53:02.879Z,9548
2018-06-19T08:54:03.563Z,9760
2018-06-19T08:55:04.301Z,10464
2018-06-19T08:56:04.988Z,11524
2018-06-19T08:57:05.712Z,12008
2018-06-19T08:58:06.398Z,13732
2018-06-19T08:59:07.084Z,13420
2018-06-19T09:00:07.772Z,13752
2018-06-19T09:01:08.458Z,13676
2018-06-19T09:02:09.145Z,12888
2018-06-19T09:03:09.833Z,13892
2018-06-19T09:04:10.556Z,14468
2018-06-19T09:05:11.243Z,13856
2018-06-19T09:06:11.930Z,13532
2018-06-19T09:07:12.617Z,14208
2018-06-19T09:08:13.302Z,13880
2018-06-19T09:09:13.990Z,12932
2018-06-19T09:10:14.676Z,12520
2018-06-19T09:11:15.363Z,12016
2018-06-19T09:12:16.050Z,11200
2018-06-19T09:13:16.795Z,10840
2018-06-19T09:14:17.476Z,10924
2018-06-19T09:15:18.161Z,10928
2018-06-19T09:16:18.886Z,11156
2018-06-19T09:17:19.574Z,11744
2018-06-19T09:18:20.310Z,12444
2018-06-19T09:19:20.997Z,13136
2018-06-19T09:20:21.740Z,13700
2018-06-19T09:21:22.427Z,14248
2018-06-19T09:22:23.108Z,14636
2018-06-19T09:23:23.793Z,14704
2018-06-19T09:24:24.481Z,14464
2018-06-19T09:25:25.218Z,14252
2018-06-19T09:26:25.958Z,14060
2018-06-19T09:27:26.641Z,14012
2018-06-19T09:28:27.378Z,14132
2018-06-19T09:29:28.063Z,14352
2018-06-19T09:30:28.751Z,14332
2018-06-19T09:31:29.450Z,14260
2018-06-19T09:32:30.123Z,14100
2018-06-19T09:33:30.809Z,13792
2018-06-19T09:34:31.496Z,13432
2018-06-19T09:35:32.182Z,13456
2018-06-19T09:36:32.869Z,13488
2018-06-19T09:37:33.554Z,13384
2018-06-19T09:38:34.241Z,13364
2018-06-19T09:39:34.927Z,13244
2018-06-19T09:40:35.614Z,12956
2018-06-19T09:41:36.320Z,12364
2018-06-19T09:42:36.985Z,12068
2018-06-19T09:43:37.672Z,12276
2018-06-19T09:44:38.408Z,11960
2018-06-19T09:45:39.095Z,11600
2018-06-19T09:46:39.782Z,11900
2018-06-19T09:47:40.468Z,12520
2018-06-19T09:48:41.203Z,13148
2018-06-19T09:49:41.891Z,13940
2018-06-19T09:50:42.582Z,14192
2018-06-19T09:51:43.261Z,13720
2018-06-19T09:52:43.947Z,13004
2018-06-19T09:53:44.710Z,12312
2018-06-19T09:54:45.317Z,12172
2018-06-19T09:55:46.004Z,12072
2018-06-19T09:56:46.689Z,11648
2018-06-19T09:57:47.374Z,11004
2018-06-19T09:58:48.111Z,10360
2018-06-19T09:59:48.796Z,9744
2018-06-19T10:00:49.479Z,9064
2018-06-19T10:01:50.165Z,8712
2018-06-19T10:02:50.850Z,8716
2018-06-19T10:03:51.543Z,8792
2018-06-19T10:04:52.229Z,8928
2018-06-19T10:05:52.913Z,9248
2018-06-19T10:06:53.598Z,9940
2018-06-19T10:07:54.284Z,10532
2018-06-19T10:08:55.019Z,10672
2018-06-19T10:09:55.705Z,10632
2018-06-19T10:10:56.390Z,10264
2018-06-19T10:11:57.108Z,9664
2018-06-19T10:12:57.788Z,8856
2018-06-19T10:13:58.471Z,8400
2018-06-19T10:14:59.158Z,8680
2018-06-19T10:15:59.842Z,9484
2018-06-19T10:17:00.528Z,10532
2018-06-19T10:18:01.212Z,11404
2018-06-19T10:19:01.897Z,12004
2018-06-19T10:20:02.583Z,12664
2018-06-19T10:21:03.269Z,12712
2018-06-19T10:22:03.953Z,12184
2018-06-19T10:23:04.637Z,11828
2018-06-19T10:24:05.325Z,11992
2018-06-19T10:25:06.010Z,12360
2018-06-19T10:26:06.693Z,12636
2018-06-19T10:27:07.378Z,12740
2018-06-19T10:28:08.065Z,12624
2018-06-19T10:29:08.799Z,12596
2018-06-19T10:30:09.483Z,12308
2018-06-19T10:31:10.169Z,11916
2018-06-19T10:32:10.856Z,11540
2018-06-19T10:33:11.543Z,11272
2018-06-19T10:34:12.222Z,11300
2018-06-19T10:35:12.908Z,11336
2018-06-19T10:36:13.593Z,11672
2018-06-19T10:37:14.280Z,11984
2018-06-19T10:38:14.961Z,11840
2018-06-19T10:39:15.646Z,11376
2018-06-19T10:40:16.416Z,11152
2018-06-19T10:41:17.068Z,11396
2018-06-19T10:42:17.802Z,11804
2018-06-19T10:43:18.489Z,12172
2018-06-19T10:44:19.175Z,12408
2018-06-19T10:45:19.866Z,12580
2018-06-19T10:46:20.545Z,12660
2018-06-19T10:47:21.230Z,12716
2018-06-19T10:48:21.914Z,12724
2018-06-19T10:49:22.599Z,12004
2018-06-19T10:50:23.285Z,11528
2018-06-19T10:51:23.971Z,11348
2018-06-19T10:52:24.694Z,11368
2018-06-19T10:53:25.379Z,11616
2018-06-19T10:54:26.113Z,11664
2018-06-19T10:55:26.798Z,11400
2018-06-19T10:56:27.484Z,11228
2018-06-19T10:57:28.169Z,11240
2018-06-19T10:58:28.903Z,11500
2018-06-19T10:59:29.588Z,11524
2018-06-19T11:00:30.274Z,11492
2018-06-19T11:01:30.958Z,11372
2018-06-19T11:02:31.645Z,11032
2018-06-19T11:03:32.329Z,10284
2018-06-19T11:04:33.064Z,9480
2018-06-19T11:05:33.748Z,8908
2018-06-19T11:06:34.432Z,8912
2018-06-19T11:07:35.117Z,9216
2018-06-19T11:08:35.799Z,9440
2018-06-19T11:09:36.532Z,9192
2018-06-19T11:10:37.217Z,8848
2018-06-19T11:11:37.909Z,8696
2018-06-19T11:12:38.587Z,8624
2018-06-19T11:13:39.268Z,8644
2018-06-19T11:14:39.953Z,8572
2018-06-19T11:15:40.635Z,8596
2018-06-19T11:16:41.319Z,8772
2018-06-19T11:17:42.002Z,8752
2018-06-19T11:18:42.684Z,8484
2018-06-19T11:19:43.370Z,8152
2018-06-19T11:20:44.103Z,7988
2018-06-19T11:21:44.838Z,7816
2018-06-19T11:22:45.569Z,7432
2018-06-19T11:23:46.254Z,6752
2018-06-19T11:24:46.935Z,6232
2018-06-19T11:25:47.672Z,6304
2018-06-19T11:26:48.304Z,6708
2018-06-19T11:27:49.023Z,6932
2018-06-19T11:28:49.705Z,6696
2018-06-19T11:29:50.387Z,6308
2018-06-19T11:30:51.122Z,6236
2018-06-19T11:31:51.853Z,6532
2018-06-19T11:32:52.538Z,7128
2018-06-19T11:33:53.216Z,7684
2018-06-19T11:34:53.940Z,8108
2018-06-19T11:35:54.671Z,8428
2018-06-19T11:36:55.354Z,8912
2018-06-19T11:37:56.086Z,9804
2018-06-19T11:38:56.773Z,10520
2018-06-19T11:39:57.458Z,10796
2018-06-19T11:40:58.136Z,10792
2018-06-19T11:41:58.821Z,10880
2018-06-19T11:42:59.505Z,10960
2018-06-19T11:44:00.190Z,10764
2018-06-19T11:45:00.881Z,10556
2018-06-19T11:46:01.560Z,10496
2018-06-19T11:47:02.282Z,10556
2018-06-19T11:48:02.969Z,10584
2018-06-19T11:49:03.740Z,10832
2018-06-19T11:50:04.376Z,11160
2018-06-19T11:51:05.059Z,11260
2018-06-19T11:52:05.772Z,11044
2018-06-19T11:53:06.427Z,10752
2018-06-19T11:54:07.115Z,10608
2018-06-19T11:55:07.835Z,10568
2018-06-19T11:56:08.519Z,10228
2018-06-19T11:57:09.205Z,9564
2018-06-19T11:58:09.884Z,8964
2018-06-19T11:59:10.566Z,8540
2018-06-19T12:00:11.250Z,8356
2018-06-19T12:01:11.967Z,8332
2018-06-19T12:02:12.653Z,8376
2018-06-19T12:03:13.335Z,8272
2018-06-19T12:04:14.018Z,8132
2018-06-19T12:05:14.788Z,8000
2018-06-19T12:06:15.471Z,8032
2018-06-19T12:07:16.155Z,8092
2018-06-19T12:08:16.840Z,8164
2018-06-19T12:09:17.560Z,8128
2018-06-19T12:10:18.291Z,8148
2018-06-19T12:11:18.975Z,8180
2018-06-19T12:12:19.697Z,8272
2018-06-19T12:13:20.377Z,8416
2018-06-19T12:14:21.111Z,8516
2018-06-19T12:15:21.793Z,8452
2018-06-19T12:16:22.526Z,8252
2018-06-19T12:17:23.208Z,8064
2018-06-19T12:18:23.891Z,8000
2018-06-19T12:19:24.623Z,8116
2018-06-19T12:20:25.354Z,8328
2018-06-19T12:21:26.089Z,8612
2018-06-19T12:22:26.773Z,8768
2018-06-19T12:23:27.454Z,8792
2018-06-19T12:24:28.174Z,8700
2018-06-19T12:25:28.858Z,8672
2018-06-19T12:26:29.541Z,8680
2018-06-19T12:27:30.223Z,8748
2018-06-19T12:28:30.905Z,8772
2018-06-19T12:29:31.592Z,8756
2018-06-19T12:30:32.272Z,8684
2018-06-19T12:31:32.953Z,9040
2018-06-19T12:32:33.637Z,8524
2018-06-19T12:33:34.320Z,8524
2018-06-19T12:34:35.057Z,8524
2018-06-19T12:35:35.743Z,8388
2018-06-19T12:36:36.425Z,8328
2018-06-19T12:37:37.108Z,8300
2018-06-19T12:38:37.790Z,8344
2018-06-19T12:39:38.478Z,8376
2018-06-19T12:40:39.157Z,8236
2018-06-19T12:41:39.925Z,8040
2018-06-19T12:42:40.521Z,7728
2018-06-19T12:43:41.203Z,7508
2018-06-19T12:44:41.936Z,7380
2018-06-19T12:45:42.618Z,7388
2018-06-19T12:46:43.364Z,7500
2018-06-19T12:47:44.067Z,7548
2018-06-19T12:48:44.749Z,7556
2018-06-19T12:49:45.432Z,7504
2018-06-19T12:50:46.112Z,7488
2018-06-19T12:51:46.847Z,7416
2018-06-19T12:52:47.530Z,7396
2018-06-19T12:53:48.213Z,7452
2018-06-19T12:54:48.896Z,7568
2018-06-19T12:55:49.578Z,7564
2018-06-19T12:56:50.261Z,7380
2018-06-19T12:57:50.942Z,7104
2018-06-19T12:58:51.629Z,6764
2018-06-19T12:59:52.403Z,6424
2018-06-19T13:00:53.116Z,6072
2018-06-19T13:01:53.802Z,5824
2018-06-19T13:02:54.518Z,5660
2018-06-19T13:03:55.200Z,5696
2018-06-19T13:04:55.884Z,6068
2018-06-19T13:05:56.567Z,6672
2018-06-19T13:06:57.250Z,7192
2018-06-19T13:07:57.931Z,7388
2018-06-19T13:08:58.614Z,7224
2018-06-19T13:09:59.347Z,6812
2018-06-19T13:11:00.034Z,6380
2018-06-19T13:12:00.716Z,6152
2018-06-19T13:13:01.398Z,6112
2018-06-19T13:14:02.081Z,6132
2018-06-19T13:15:02.765Z,6024
2018-06-19T13:16:03.446Z,5804
2018-06-19T13:17:04.129Z,5592
2018-06-19T13:18:04.811Z,5552
2018-06-19T13:19:05.544Z,5648
2018-06-19T13:20:06.226Z,5736
2018-06-19T13:21:07.114Z,5700
2018-06-19T13:22:07.848Z,5548
2018-06-19T13:23:08.529Z,5392
2018-06-19T13:24:09.211Z,5284
2018-06-19T13:25:09.893Z,5144
2018-06-19T13:26:10.576Z,4976
2018-06-19T13:27:11.308Z,4924
2018-06-19T13:28:11.990Z,4980
2018-06-19T13:29:12.672Z,5208
2018-06-19T13:30:13.354Z,5580
2018-06-19T13:31:14.037Z,6084
2018-06-19T13:32:14.769Z,6648
2018-06-19T13:33:15.505Z,7276
2018-06-19T13:34:16.188Z,7904
2018-06-19T13:35:16.871Z,8280
2018-06-19T13:36:17.559Z,8260
2018-06-19T13:37:18.284Z,7900
2018-06-19T13:38:19.019Z,7436
2018-06-19T13:39:19.702Z,7288
2018-06-19T13:40:20.383Z,7328